createdAt,value
2023-02-09T00:00:23.633Z,7.75
2023-02-09T00:02:51.546Z,5.95
2023-02-09T00:05:19.426Z,5.57
2023-02-09T00:07:47.178Z,7.60
2023-02-09T00:10:16.323Z,7.32
2023-02-09T00:13:01.778Z,6.57
2023-02-09T00:15:29.574Z,7.80
2023-02-09T00:17:57.432Z,7.43
2023-02-09T00:20:25.273Z,6.30
2023-02-09T00:22:53.138Z,6.55
2023-02-09T00:25:22.367Z,8.55
2023-02-09T00:27:50.191Z,6.28
2023-02-09T00:30:18.210Z,5.40
2023-02-09T00:32:46.550Z,5.43
2023-02-09T00:35:15.567Z,6.40
2023-02-09T00:37:43.395Z,6.75
2023-02-09T00:40:12.400Z,5.90
2023-02-09T00:42:41.485Z,5.72
2023-02-09T00:45:10.528Z,7.43
2023-02-09T00:47:38.465Z,4.75
2023-02-09T00:50:08.430Z,6.40
2023-02-09T00:52:36.779Z,6.75
2023-02-09T00:55:05.374Z,7.03
2023-02-09T00:57:33.717Z,6.40
2023-02-09T01:00:02.998Z,6.53
2023-02-09T01:02:30.838Z,5.50
2023-02-09T01:04:58.681Z,7.07
2023-02-09T01:07:26.557Z,7.25
2023-02-09T01:09:54.441Z,5.90
2023-02-09T01:12:22.376Z,7.15
2023-02-09T01:14:50.271Z,6.03
2023-02-09T01:17:19.568Z,7.70
2023-02-09T01:19:47.658Z,6.47
2023-02-09T01:22:16.433Z,7.38
2023-02-09T01:24:45.957Z,6.40
2023-02-09T01:27:15.892Z,7.45
2023-02-09T01:29:43.807Z,5.93
2023-02-09T01:32:12.295Z,5.93
2023-02-09T01:34:41.878Z,6.25
2023-02-09T01:37:09.653Z,6.63
2023-02-09T01:39:37.541Z,6.47
2023-02-09T01:42:05.454Z,7.35
2023-02-09T01:45:10.084Z,6.18
2023-02-09T01:47:44.739Z,6.10
2023-02-09T01:50:15.005Z,5.95
2023-02-09T01:52:45.960Z,7.50
2023-02-09T01:55:16.338Z,5.68
2023-02-09T01:57:49.003Z,5.35
2023-02-09T02:00:20.215Z,5.47
2023-02-09T02:02:53.122Z,5.25
2023-02-09T02:05:23.598Z,5.93
2023-02-09T02:07:58.971Z,5.38
2023-02-09T02:10:26.884Z,4.70
2023-02-09T02:12:55.588Z,6.85
2023-02-09T02:15:27.875Z,5.00
2023-02-09T02:18:21.326Z,6.68
2023-02-09T02:21:24.940Z,5.97
2023-02-09T02:24:17.472Z,6.32
2023-02-09T02:26:53.051Z,4.57
2023-02-09T02:30:03.042Z,6.10
2023-02-09T02:32:54.104Z,5.82
2023-02-09T02:35:35.157Z,3.60
2023-02-09T02:38:13.118Z,5.82
2023-02-09T02:40:49.438Z,5.03
2023-02-09T02:43:26.229Z,5.10
2023-02-09T02:45:59.913Z,4.75
2023-02-09T02:48:36.964Z,3.80
2023-02-09T02:51:07.950Z,5.78
2023-02-09T02:53:38.802Z,5.38
2023-02-09T02:56:10.833Z,4.35
2023-02-09T02:58:41.557Z,4.80
2023-02-09T03:01:12.210Z,3.85
2023-02-09T03:03:43.446Z,4.32
2023-02-09T03:06:13.127Z,4.35
2023-02-09T03:08:49.356Z,3.60
2023-02-09T03:11:18.930Z,4.78
2023-02-09T03:14:01.706Z,3.75
2023-02-09T03:16:41.015Z,4.03
2023-02-09T03:19:20.490Z,3.42
2023-02-09T03:21:53.097Z,3.47
2023-02-09T03:24:31.773Z,3.15
2023-02-09T03:27:03.583Z,3.15
2023-02-09T03:29:32.879Z,3.83
2023-02-09T03:32:00.762Z,2.72
2023-02-09T03:34:30.362Z,3.55
2023-02-09T03:36:58.966Z,1.95
2023-02-09T03:39:26.688Z,4.13
2023-02-09T03:41:54.412Z,3.25
2023-02-09T03:44:28.187Z,2.40
2023-02-09T03:46:58.094Z,1.77
2023-02-09T03:49:26.962Z,2.97
2023-02-09T03:51:56.480Z,2.13
2023-02-09T03:54:24.336Z,3.67
2023-02-09T03:56:52.238Z,3.15
2023-02-09T03:59:20.887Z,2.45
2023-02-09T04:01:48.819Z,2.10
2023-02-09T04:04:16.824Z,3.40
2023-02-09T04:06:44.794Z,2.15
2023-02-09T04:09:14.840Z,1.88
2023-02-09T04:11:42.916Z,2.55
2023-02-09T04:14:10.969Z,2.05
2023-02-09T04:16:38.947Z,3.00
2023-02-09T04:19:09.072Z,3.13
2023-02-09T04:21:37.121Z,2.28
2023-02-09T04:24:05.659Z,2.22
2023-02-09T04:26:35.266Z,2.47
2023-02-09T04:29:03.167Z,2.00
2023-02-09T04:31:31.206Z,2.85
2023-02-09T04:33:59.208Z,1.30
2023-02-09T04:36:27.220Z,1.92
2023-02-09T04:38:55.060Z,1.27
2023-02-09T04:41:22.896Z,2.55
2023-02-09T04:43:52.431Z,2.17
2023-02-09T04:46:20.813Z,1.52
2023-02-09T04:48:48.731Z,1.88
2023-02-09T04:51:16.699Z,1.40
2023-02-09T04:53:44.499Z,1.65
2023-02-09T04:56:15.340Z,1.23
2023-02-09T04:59:01.287Z,1.48
2023-02-09T05:01:31.570Z,1.83
2023-02-09T05:03:59.552Z,1.40
2023-02-09T05:06:27.418Z,1.48
2023-02-09T05:08:55.206Z,1.48
2023-02-09T05:11:24.716Z,2.17
2023-02-09T05:13:53.340Z,1.13
2023-02-09T05:16:21.204Z,1.00
2023-02-09T05:18:51.062Z,0.95
2023-02-09T05:21:19.091Z,0.68
2023-02-09T05:23:46.951Z,1.23
2023-02-09T05:26:14.948Z,0.98
2023-02-09T05:28:42.842Z,1.13
2023-02-09T05:31:10.658Z,0.65
2023-02-09T05:33:38.504Z,2.08
2023-02-09T05:36:09.743Z,0.95
2023-02-09T05:38:37.728Z,1.27
2023-02-09T05:41:06.667Z,0.95
2023-02-09T05:43:34.754Z,0.80
2023-02-09T05:46:02.627Z,0.35
2023-02-09T05:48:30.481Z,0.82
2023-02-09T05:50:58.293Z,0.95
2023-02-09T05:53:27.605Z,1.40
2023-02-09T05:55:55.437Z,0.55
2023-02-09T05:58:23.312Z,1.00
2023-02-09T06:00:51.086Z,0.28
2023-02-09T06:03:18.922Z,0.77
2023-02-09T06:05:46.849Z,0.70
2023-02-09T06:08:14.722Z,0.80
2023-02-09T06:10:44.316Z,0.85
2023-02-09T06:13:12.512Z,0.52
2023-02-09T06:15:40.493Z,0.85
2023-02-09T06:18:08.552Z,0.98
2023-02-09T06:20:36.416Z,0.75
2023-02-09T06:23:04.307Z,0.55
2023-02-09T06:25:32.206Z,0.98
2023-02-09T06:28:02.683Z,1.60
2023-02-09T06:30:32.655Z,1.17
2023-02-09T06:33:00.878Z,0.70
2023-02-09T06:35:28.926Z,0.60
2023-02-09T06:37:58.640Z,1.05
2023-02-09T06:40:26.421Z,0.93
2023-02-09T06:42:54.294Z,0.50
2023-02-09T06:45:23.543Z,0.95
2023-02-09T06:47:51.281Z,1.20
2023-02-09T06:50:19.756Z,0.63
2023-02-09T06:52:47.966Z,0.30
2023-02-09T06:55:16.196Z,0.82
2023-02-09T06:57:44.016Z,0.55
2023-02-09T07:00:13.994Z,0.40
2023-02-09T07:02:44.347Z,0.60
2023-02-09T07:05:12.586Z,0.43
2023-02-09T07:07:40.733Z,0.50
2023-02-09T07:10:10.190Z,1.13
2023-02-09T07:12:40.524Z,0.50
2023-02-09T07:15:09.222Z,0.82
2023-02-09T07:17:37.258Z,1.10
2023-02-09T07:20:07.986Z,0.50
2023-02-09T07:22:36.495Z,0.45
2023-02-09T07:25:04.455Z,0.20
2023-02-09T07:27:32.372Z,0.63
2023-02-09T07:30:01.179Z,0.38
2023-02-09T07:32:29.240Z,0.43
2023-02-09T07:34:57.084Z,0.30
2023-02-09T07:37:26.157Z,0.55
2023-02-09T07:39:53.931Z,0.35
2023-02-09T07:42:23.360Z,0.38
2023-02-09T07:44:57.846Z,1.23
2023-02-09T07:47:25.589Z,0.25
2023-02-09T07:49:53.357Z,0.20
2023-02-09T07:52:21.199Z,0.95
2023-02-09T07:54:51.832Z,0.30
2023-02-09T07:57:19.708Z,0.52
2023-02-09T07:59:47.530Z,0.60
2023-02-09T08:02:25.753Z,1.15
2023-02-09T08:04:54.255Z,0.50
2023-02-09T08:07:22.154Z,0.25
2023-02-09T08:09:51.322Z,0.50
2023-02-09T08:12:19.542Z,0.38
2023-02-09T08:14:49.066Z,0.43
2023-02-09T08:17:24.244Z,0.30
2023-02-09T08:19:57.088Z,0.55
2023-02-09T08:22:28.542Z,0.50
2023-02-09T08:24:58.916Z,0.65
2023-02-09T08:27:26.952Z,0.30
2023-02-09T08:29:54.752Z,0.60
2023-02-09T08:32:23.138Z,0.30
2023-02-09T08:34:50.961Z,0.32
2023-02-09T08:37:18.848Z,0.43
2023-02-09T08:39:46.598Z,0.40
2023-02-09T08:42:15.738Z,0.35
2023-02-09T08:44:43.621Z,0.82
2023-02-09T08:47:11.374Z,0.30
2023-02-09T08:49:39.380Z,6.80
2023-02-09T08:52:08.223Z,0.98
2023-02-09T08:54:36.210Z,0.60
2023-02-09T08:57:04.500Z,0.68
2023-02-09T08:59:34.232Z,0.50
2023-02-09T09:02:02.011Z,0.77
2023-02-09T09:04:29.843Z,0.52
2023-02-09T09:06:57.846Z,1.10
2023-02-09T09:09:26.063Z,0.73
2023-02-09T09:11:53.899Z,0.55
2023-02-09T09:14:21.670Z,0.57
2023-02-09T09:16:50.941Z,0.30
2023-02-09T09:19:18.780Z,0.40
2023-02-09T09:21:46.467Z,0.47
2023-02-09T09:24:14.280Z,0.30
2023-02-09T09:26:42.030Z,0.25
2023-02-09T09:29:11.203Z,0.68
2023-02-09T09:31:39.284Z,0.47
2023-02-09T09:34:08.551Z,1.00
2023-02-09T09:36:36.292Z,0.30
2023-02-09T09:39:04.673Z,0.93
2023-02-09T09:41:36.454Z,0.57
2023-02-09T09:44:11.981Z,0.55
2023-02-09T09:46:43.217Z,0.75
2023-02-09T09:49:22.082Z,0.52
2023-02-09T09:51:54.830Z,0.40
2023-02-09T09:54:25.805Z,0.30
2023-02-09T09:56:55.678Z,0.40
2023-02-09T09:59:27.685Z,0.20
2023-02-09T10:01:57.358Z,0.10
2023-02-09T10:04:26.484Z,0.45
2023-02-09T10:07:00.880Z,0.20
2023-02-09T10:09:35.849Z,0.40
2023-02-09T10:12:14.921Z,0.35
2023-02-09T10:14:42.974Z,0.22
2023-02-09T10:17:11.366Z,0.25
2023-02-09T10:19:40.507Z,0.60
2023-02-09T10:22:13.609Z,0.55
2023-02-09T10:24:42.047Z,0.30
2023-02-09T10:27:16.431Z,0.25
2023-02-09T10:29:44.276Z,0.75
2023-02-09T10:32:17.704Z,0.40
2023-02-09T10:34:50.453Z,0.30
2023-02-09T10:37:25.991Z,0.20
2023-02-09T10:40:02.456Z,0.20
2023-02-09T10:42:32.613Z,0.10
2023-02-09T10:45:09.183Z,0.22
2023-02-09T10:47:37.061Z,0.15
2023-02-09T10:50:17.012Z,0.20
2023-02-09T10:52:56.327Z,0.40
2023-02-09T10:55:27.849Z,0.20
2023-02-09T10:58:12.133Z,0.20
2023-02-09T11:00:49.415Z,0.32
2023-02-09T11:03:19.954Z,0.45
2023-02-09T11:05:59.843Z,0.52
2023-02-09T11:08:40.654Z,0.10
2023-02-09T11:11:14.674Z,0.30
2023-02-09T11:13:44.198Z,0.20
2023-02-09T11:16:30.329Z,0.25
2023-02-09T11:19:06.430Z,0.15
2023-02-09T11:21:58.071Z,0.93
2023-02-09T11:24:42.741Z,0.32
2023-02-09T11:27:27.872Z,0.60
2023-02-09T11:30:08.831Z,0.45
2023-02-09T11:32:43.802Z,0.30
2023-02-09T11:35:13.423Z,0.40
2023-02-09T11:37:52.647Z,0.20
2023-02-09T11:40:32.440Z,0.28
2023-02-09T11:43:13.331Z,0.20
2023-02-09T11:45:46.263Z,0.40
2023-02-09T11:48:20.921Z,0.20
2023-02-09T11:51:12.637Z,0.65
2023-02-09T11:53:49.884Z,0.35
2023-02-09T11:56:19.296Z,0.30
2023-02-09T11:58:54.846Z,0.55
2023-02-09T12:01:36.584Z,0.22
2023-02-09T12:04:11.317Z,0.68
2023-02-09T12:06:42.634Z,0.20
2023-02-09T12:09:45.531Z,0.57
2023-02-09T12:12:24.260Z,0.25
2023-02-09T12:15:05.487Z,0.30
2023-02-09T12:17:42.405Z,0.10
2023-02-09T12:20:25.009Z,0.40
2023-02-09T12:22:58.368Z,0.20
2023-02-09T12:25:38.555Z,0.50
2023-02-09T12:28:40.061Z,0.55
2023-02-09T12:31:31.903Z,0.10
2023-02-09T12:34:25.424Z,0.30
2023-02-09T12:37:28.718Z,0.10
2023-02-09T12:40:24.016Z,0.20
2023-02-09T12:43:14.017Z,0.22
2023-02-09T12:45:44.700Z,0.10
2023-02-09T12:48:17.714Z,0.40
2023-02-09T12:50:49.153Z,0.20
2023-02-09T12:53:48.119Z,0.38
2023-02-09T12:56:31.019Z,0.25
2023-02-09T12:59:16.260Z,0.80
2023-02-09T13:02:25.198Z,0.65
2023-02-09T13:05:02.829Z,0.32
2023-02-09T13:07:43.883Z,0.43
2023-02-09T13:10:22.428Z,0.20
2023-02-09T13:12:55.892Z,0.30
2023-02-09T13:15:31.709Z,0.20
2023-02-09T13:18:08.309Z,0.20
2023-02-09T13:20:56.095Z,0.30
2023-02-09T13:23:33.334Z,0.20
2023-02-09T13:26:18.866Z,0.10
2023-02-09T13:28:46.926Z,0.30
2023-02-09T13:31:26.123Z,0.30
2023-02-09T13:34:00.677Z,0.77
2023-02-09T13:36:37.707Z,0.10
2023-02-09T13:39:08.567Z,0.17
2023-02-09T13:41:38.096Z,0.68
2023-02-09T13:44:20.692Z,0.50
2023-02-09T13:46:55.384Z,0.10
2023-02-09T13:49:24.546Z,0.20
2023-02-09T13:52:13.002Z,0.40
2023-02-09T13:54:41.583Z,0.30
2023-02-09T13:57:11.664Z,0.20
2023-02-09T13:59:42.589Z,0.35
2023-02-09T14:02:22.598Z,0.20
2023-02-09T14:04:55.756Z,0.77
2023-02-09T14:07:29.585Z,0.28
2023-02-09T14:10:02.988Z,0.20
2023-02-09T14:12:52.525Z,0.63
2023-02-09T14:15:42.121Z,0.30
2023-02-09T14:18:24.611Z,0.30
2023-02-09T14:21:16.498Z,0.50
2023-02-09T14:23:46.881Z,0.93
2023-02-09T14:26:25.353Z,0.22
2023-02-09T14:28:56.249Z,0.85
2023-02-09T14:31:27.092Z,0.25
2023-02-09T14:33:57.913Z,0.30
2023-02-09T14:36:32.406Z,0.20
2023-02-09T14:39:16.417Z,0.63
2023-02-09T14:41:56.975Z,0.30
2023-02-09T14:44:25.432Z,0.63
2023-02-09T14:46:54.550Z,0.38
2023-02-09T14:49:24.694Z,0.20
2023-02-09T14:52:02.225Z,0.57
2023-02-09T14:54:32.091Z,0.25
2023-02-09T14:57:03.635Z,0.30
2023-02-09T14:59:32.250Z,0.20
2023-02-09T15:02:00.173Z,0.20
2023-02-09T15:04:29.797Z,0.43
2023-02-09T15:07:04.201Z,0.47
2023-02-09T15:09:38.374Z,0.63
2023-02-09T15:12:08.460Z,0.30
2023-02-09T15:14:42.828Z,0.10
2023-02-09T15:17:15.051Z,0.30
2023-02-09T15:19:44.897Z,0.63
2023-02-09T15:22:15.168Z,0.10
2023-02-09T15:24:44.081Z,0.30
2023-02-09T15:27:19.935Z,0.20
2023-02-09T15:29:48.082Z,0.50
2023-02-09T15:32:17.866Z,0.52
2023-02-09T15:34:47.297Z,0.22
2023-02-09T15:37:21.914Z,0.30
2023-02-09T15:39:50.674Z,0.60
2023-02-09T15:42:37.946Z,0.73
2023-02-09T15:45:35.278Z,0.68
2023-02-09T15:48:03.905Z,0.28
2023-02-09T15:50:34.973Z,0.30
2023-02-09T15:53:05.581Z,0.30
2023-02-09T15:55:34.745Z,0.55
2023-02-09T15:58:03.920Z,0.43
2023-02-09T16:00:32.297Z,1.20
2023-02-09T16:03:01.533Z,0.22
2023-02-09T16:05:30.774Z,0.50
2023-02-09T16:08:00.864Z,0.20
2023-02-09T16:10:30.745Z,0.85
2023-02-09T16:12:58.715Z,0.50
2023-02-09T16:15:27.350Z,0.43
2023-02-09T16:17:55.118Z,0.93
2023-02-09T16:20:24.882Z,0.50
2023-02-09T16:23:11.731Z,0.73
2023-02-09T16:25:44.635Z,1.05
2023-02-09T16:28:14.515Z,0.70
2023-02-09T16:30:49.787Z,0.77
2023-02-09T16:33:18.339Z,0.40
2023-02-09T16:35:51.337Z,0.77
2023-02-09T16:38:22.262Z,0.98
2023-02-09T16:40:51.735Z,0.90
2023-02-09T16:43:20.224Z,0.68
2023-02-09T16:46:01.425Z,0.70
2023-02-09T16:48:34.370Z,0.85
2023-02-09T16:51:02.434Z,0.60
2023-02-09T16:53:33.895Z,0.40
2023-02-09T16:56:04.912Z,0.63
2023-02-09T16:58:33.243Z,1.17
2023-02-09T17:01:01.060Z,1.20
2023-02-09T17:03:34.413Z,0.80
2023-02-09T17:06:03.407Z,0.30
2023-02-09T17:08:32.950Z,0.40
2023-02-09T17:11:02.118Z,0.98
2023-02-09T17:13:32.081Z,1.02
2023-02-09T17:16:01.848Z,0.75
2023-02-09T17:18:33.507Z,1.00
2023-02-09T17:21:02.932Z,0.77
2023-02-09T17:23:31.502Z,1.58
2023-02-09T17:26:00.115Z,0.30
2023-02-09T17:28:28.875Z,1.70
2023-02-09T17:30:59.759Z,1.27
2023-02-09T17:33:30.840Z,0.40
2023-02-09T17:38:48.370Z,0.47
2023-02-09T17:41:17.999Z,0.43
2023-02-09T17:43:46.018Z,0.70
2023-02-09T17:46:18.568Z,0.35
2023-02-09T17:48:46.708Z,0.47
2023-02-09T17:51:20.779Z,0.77
2023-02-09T17:53:48.938Z,0.50
2023-02-09T17:56:16.996Z,0.38
2023-02-09T17:58:45.374Z,0.85
2023-02-09T18:01:26.398Z,1.10
2023-02-09T18:03:55.209Z,0.77
2023-02-09T18:06:29.933Z,0.95
2023-02-09T18:08:57.718Z,0.95
2023-02-09T18:11:40.720Z,0.93
2023-02-09T18:14:10.260Z,0.65
2023-02-09T18:16:41.129Z,0.43
2023-02-09T18:19:09.455Z,0.68
2023-02-09T18:21:37.754Z,0.50
2023-02-09T18:24:06.349Z,0.28
2023-02-09T18:26:34.532Z,0.57
2023-02-09T18:29:02.469Z,0.35
2023-02-09T18:31:30.260Z,0.47
2023-02-09T18:33:59.676Z,0.32
2023-02-09T18:36:27.634Z,0.77
2023-02-09T18:38:55.729Z,0.55
2023-02-09T18:41:23.727Z,0.75
2023-02-09T18:43:53.955Z,0.50
2023-02-09T18:46:24.503Z,0.20
2023-02-09T18:48:52.749Z,0.30
2023-02-09T18:51:22.581Z,0.50
2023-02-09T18:53:51.378Z,0.30
2023-02-09T18:56:20.482Z,0.60
2023-02-09T18:58:48.940Z,0.60
2023-02-09T19:01:17.044Z,1.33
2023-02-09T19:03:44.945Z,1.08
2023-02-09T19:06:13.493Z,2.22
2023-02-09T19:08:42.671Z,0.40
2023-02-09T19:11:14.766Z,0.43
2023-02-09T19:13:42.793Z,0.43
2023-02-09T19:16:13.857Z,3.60
2023-02-09T19:18:41.694Z,0.47
2023-02-09T19:21:09.558Z,0.85
2023-02-09T19:23:37.367Z,0.43
2023-02-09T19:26:07.025Z,0.40
2023-02-09T19:28:35.814Z,0.45
2023-02-09T19:31:03.912Z,0.60
2023-02-09T19:33:31.814Z,0.28
2023-02-09T19:36:00.452Z,0.65
2023-02-09T19:38:28.539Z,0.47
2023-02-09T19:41:09.793Z,0.30
2023-02-09T19:43:40.082Z,0.77
2023-02-09T19:46:09.843Z,0.43
2023-02-09T19:48:39.956Z,0.43
2023-02-09T19:51:08.813Z,0.20
2023-02-09T19:53:36.996Z,0.52
2023-02-09T19:56:05.202Z,0.47
2023-02-09T19:58:33.002Z,0.90
2023-02-09T20:01:02.348Z,0.25
2023-02-09T20:03:31.095Z,0.60
2023-02-09T20:05:58.894Z,0.52
2023-02-09T20:08:26.944Z,0.75
2023-02-09T20:10:54.858Z,0.40
2023-02-09T20:15:56.046Z,1.13
2023-02-09T20:18:25.240Z,1.05
2023-02-09T20:20:53.103Z,0.70
2023-02-09T20:23:20.870Z,0.77
2023-02-09T20:25:48.646Z,0.77
2023-02-09T20:28:17.096Z,0.75
2023-02-09T20:30:47.216Z,1.13
2023-02-09T20:33:15.675Z,0.60
2023-02-09T20:35:46.515Z,0.50
2023-02-09T20:38:14.780Z,1.20
2023-02-09T20:40:43.492Z,0.90
2023-02-09T20:43:30.153Z,1.00
2023-02-09T20:46:15.463Z,1.30
2023-02-09T20:48:43.439Z,0.68
2023-02-09T20:51:12.580Z,0.50
2023-02-09T20:53:40.357Z,0.93
2023-02-09T20:56:08.628Z,1.63
2023-02-09T20:58:37.642Z,1.08
2023-02-09T21:01:06.606Z,1.95
2023-02-09T21:03:34.469Z,2.35
2023-02-09T21:06:02.300Z,0.82
2023-02-09T21:08:31.497Z,1.55
2023-02-09T21:10:59.899Z,0.45
2023-02-09T21:13:27.831Z,1.52
2023-02-09T21:15:56.805Z,1.73
2023-02-09T21:18:25.178Z,1.50
2023-02-09T21:20:53.292Z,0.63
2023-02-09T21:23:21.431Z,2.08
2023-02-09T21:25:50.549Z,1.52
2023-02-09T21:28:18.416Z,0.85
2023-02-09T21:30:46.607Z,1.95
2023-02-09T21:33:14.699Z,1.23
2023-02-09T21:35:42.442Z,2.22
2023-02-09T21:38:10.279Z,1.50
2023-02-09T21:40:38.107Z,2.55
2023-02-09T21:43:07.442Z,2.80
2023-02-09T21:45:37.959Z,1.85
2023-02-09T21:48:05.862Z,1.83
2023-02-09T21:50:34.310Z,1.58
2023-02-09T21:53:03.042Z,3.47
2023-02-09T21:55:31.421Z,2.38
2023-02-09T21:57:59.332Z,0.85
2023-02-09T22:00:30.583Z,2.10
2023-02-09T22:02:58.552Z,1.55
2023-02-09T22:05:26.389Z,1.83
2023-02-09T22:07:54.428Z,2.90
2023-02-09T22:10:22.196Z,2.25
2023-02-09T22:12:49.966Z,2.20
2023-02-09T22:15:19.107Z,2.88
2023-02-09T22:17:49.234Z,3.20
2023-02-09T22:20:17.434Z,1.77
2023-02-09T22:22:46.086Z,3.10
2023-02-09T22:25:14.010Z,2.85
2023-02-09T22:27:41.838Z,3.00
2023-02-09T22:30:10.886Z,3.50
2023-02-09T22:32:38.762Z,2.92
2023-02-09T22:35:08.988Z,2.95
2023-02-09T22:37:36.884Z,2.03
2023-02-09T22:40:05.029Z,2.38
2023-02-09T22:42:32.995Z,2.40
2023-02-09T22:45:00.871Z,4.75
2023-02-09T22:47:28.663Z,4.13
2023-02-09T22:49:56.502Z,3.45
2023-02-09T22:52:25.959Z,2.42
2023-02-09T22:54:54.145Z,4.00
2023-02-09T22:57:21.879Z,3.83
2023-02-09T22:59:49.645Z,4.47
2023-02-09T23:02:17.467Z,4.07
2023-02-09T23:04:45.366Z,3.65
2023-02-09T23:07:13.160Z,4.03
2023-02-09T23:09:42.535Z,2.67
2023-02-09T23:12:10.388Z,3.70
2023-02-09T23:14:38.267Z,3.25
2023-02-09T23:17:06.121Z,4.63
2023-02-09T23:19:34.002Z,4.35
2023-02-09T23:22:01.871Z,4.43
2023-02-09T23:24:29.753Z,5.75
2023-02-09T23:26:59.034Z,4.93
2023-02-09T23:29:28.056Z,4.55
2023-02-09T23:31:55.920Z,3.25
2023-02-09T23:34:24.176Z,2.47
2023-02-09T23:36:52.307Z,5.43
2023-02-09T23:39:23.121Z,4.07
2023-02-09T23:41:51.041Z,4.90
2023-02-09T23:44:20.445Z,2.75
2023-02-09T23:46:48.341Z,4.38
2023-02-09T23:49:16.061Z,3.58
2023-02-09T23:51:45.589Z,5.93
2023-02-09T23:54:13.552Z,5.10
2023-02-09T23:56:41.385Z,4.43
2023-02-09T23:59:12.652Z,4.90
